Hauptseite
METAR-TAF:

METAR-TAF

Flughäfen :

Flughafen Toulouse-Blagnac

Toulouse, Frankreich

Breite: 43-38N, Länge: 001-22E, Höhe: 152 m

Beobachtung

Neuester Wetterbericht von vor 35 Minuten, um 11:00 UTC
Wind 3 kt aus unterschiedlichen Richtungen
Temperatur 24°C
Luftfeuchtigkeit 69%
Luftdruck 1022 hPa
Sichtweite 10 km oder mehr
keine Wolken unter 1500 m und keine Kumulonimbus oder Gewitterwolken

METAR: LFBO 191100Z AUTO VRB03KT CAVOK 24/18 Q1022 NOSIG

Zeit: 13:35 (11:35 UTC)

Prognose

Neuester Wetterbericht von vor 3 Stunden und 25 Minuten, um 08:10 UTC
Gültige Prognose vom 19 um 08 UTC bis 20 um 12 UTC
Wind 4 kt aus West
Sichtweite 10 km oder mehr
Durchbrochene Bewölkung in der Höhe von 500 ft
Übergehend zu
vom 19 um 09 UTC bis 19 um 11 UTC
Sichtweite 10 km oder mehr
keine Wolken unter 1500 m und keine Kumulonimbus oder Gewitterwolken

TAF: LFBO 190810Z 1908/2012 27004KT 9999 BKN005 BECMG 1909/1911 CAVOK

Wetterbeobachtungen und Prognosen von mehr als 4000 Flughäfen (METAR und TAF Bericht).

Die verfügbaren Stationen werden durch gelbe und rote Markierungen auf der Karte dargestellt.

Führen Sie die Maus auf sie, um den Namen der Station zu sehen.

Darauf klicken, um die Beobachtung von Wetterbeobachtungen und Prognosen zu sehen.

Um die Karte zu ändern : klicken Sie auf den grünen Tasten mit einem schwarzen Kreuz Zum Vergrößern, auf den grünen Button mit einem Gedankenstrich zu verkleinern, oder auf die grünen Pfeile für benachbarte Karten.


METAR-TAF: